createdAt,value
2019-05-20T00:02:21.659Z,9.60
2019-05-20T00:04:38.767Z,9.47
2019-05-20T00:07:08.567Z,9.53
2019-05-20T00:09:37.139Z,9.77
2019-05-20T00:12:06.112Z,9.20
2019-05-20T00:14:35.898Z,9.33
2019-05-20T00:17:05.646Z,9.30
2019-05-20T00:19:34.116Z,9.53
2019-05-20T00:22:02.674Z,8.50
2019-05-20T00:24:31.715Z,9.37
2019-05-20T00:27:00.400Z,9.17
2019-05-20T00:29:28.886Z,9.57
2019-05-20T00:31:57.364Z,9.43
2019-05-20T00:34:34.782Z,9.60
2019-05-20T00:36:56.431Z,9.37
2019-05-20T00:39:25.054Z,10.17
2019-05-20T00:41:53.757Z,9.80
2019-05-20T00:44:22.559Z,9.80
2019-05-20T00:46:51.132Z,10.10
2019-05-20T00:49:19.874Z,10.47
2019-05-20T00:51:48.690Z,9.83
2019-05-20T00:54:17.306Z,9.50
2019-05-20T00:56:49.129Z,9.63
2019-05-20T00:59:17.886Z,10.63
2019-05-20T01:01:46.664Z,10.23
2019-05-20T01:04:15.199Z,10.57
2019-05-20T01:06:43.693Z,10.87
2019-05-20T01:09:12.162Z,10.40
2019-05-20T01:11:41.046Z,11.60
2019-05-20T01:14:09.589Z,10.43
2019-05-20T01:16:38.217Z,10.30
2019-05-20T01:19:06.895Z,11.50
2019-05-20T01:21:36.443Z,10.53
2019-05-20T01:24:05.468Z,10.47
2019-05-20T01:26:34.253Z,11.20
2019-05-20T01:29:02.930Z,10.47
2019-05-20T01:31:31.647Z,11.57
2019-05-20T01:34:00.394Z,10.73
2019-05-20T01:36:29.015Z,11.23
2019-05-20T01:38:57.646Z,10.70
2019-05-20T01:41:28.365Z,10.60
2019-05-20T01:43:57.244Z,10.13
2019-05-20T01:46:25.881Z,10.60
2019-05-20T01:48:54.494Z,11.73
2019-05-20T01:51:23.158Z,10.93
2019-05-20T01:53:51.784Z,11.33
2019-05-20T01:56:20.482Z,11.40
2019-05-20T01:58:49.193Z,11.10
2019-05-20T02:01:17.876Z,11.13
2019-05-20T02:03:46.631Z,11.40
2019-05-20T02:06:15.348Z,12.13
2019-05-20T02:08:43.919Z,10.77
2019-05-20T02:11:12.681Z,11.77
2019-05-20T02:13:57.805Z,11.87
2019-05-20T02:16:28.134Z,12.07
2019-05-20T02:18:56.710Z,12.07
2019-05-20T02:21:25.282Z,12.33
2019-05-20T02:23:54.042Z,11.73
2019-05-20T02:26:23.015Z,11.73
2019-05-20T02:28:51.588Z,11.27
2019-05-20T02:31:20.104Z,11.87
2019-05-20T02:33:52.088Z,10.97
2019-05-20T02:36:19.237Z,13.03
2019-05-20T02:38:47.910Z,11.63
2019-05-20T02:41:17.801Z,11.67
2019-05-20T02:43:46.776Z,11.70
2019-05-20T02:46:15.947Z,12.33
2019-05-20T02:48:44.597Z,12.50
2019-05-20T02:51:13.392Z,12.53
2019-05-20T02:53:42.873Z,12.47
2019-05-20T02:56:12.844Z,13.10
2019-05-20T02:58:41.434Z,13.83
2019-05-20T03:01:10.224Z,13.23
2019-05-20T03:03:38.767Z,13.17
2019-05-20T03:06:07.551Z,14.03
2019-05-20T03:08:36.150Z,13.40
2019-05-20T03:11:05.805Z,12.87
2019-05-20T03:13:34.385Z,13.33
2019-05-20T03:16:03.165Z,12.13
2019-05-20T03:18:31.825Z,12.83
2019-05-20T03:21:00.341Z,11.57
2019-05-20T03:23:29.201Z,11.70
2019-05-20T03:25:57.830Z,11.70
2019-05-20T03:28:26.488Z,12.27
2019-05-20T03:30:55.211Z,12.30
2019-05-20T03:33:23.955Z,11.70
2019-05-20T03:35:52.645Z,11.50
2019-05-20T03:38:21.192Z,11.23
2019-05-20T03:40:50.029Z,11.97
2019-05-20T03:43:18.602Z,10.77
2019-05-20T03:45:47.246Z,10.70
2019-05-20T03:48:15.936Z,10.53
2019-05-20T03:50:44.682Z,10.60
2019-05-20T03:53:13.314Z,10.20
2019-05-20T03:55:42.359Z,10.73
2019-05-20T03:58:13.704Z,10.03
2019-05-20T04:00:47.195Z,10.60
2019-05-20T04:03:16.735Z,11.00
2019-05-20T04:05:46.084Z,10.40
2019-05-20T04:08:15.190Z,9.93
2019-05-20T04:10:44.044Z,10.30
2019-05-20T04:13:13.876Z,9.97
2019-05-20T04:15:42.565Z,9.73
2019-05-20T04:18:12.553Z,10.30
2019-05-20T04:20:42.037Z,9.67
2019-05-20T04:23:10.657Z,9.80
2019-05-20T04:25:39.515Z,9.10
2019-05-20T04:28:09.248Z,9.20
2019-05-20T04:30:38.012Z,9.30
2019-05-20T04:33:06.661Z,8.70
2019-05-20T04:35:35.381Z,8.70
2019-05-20T04:38:05.615Z,9.00
2019-05-20T04:40:35.183Z,9.23
2019-05-20T04:43:03.990Z,9.10
2019-05-20T04:45:32.985Z,9.20
2019-05-20T04:48:01.778Z,8.90
2019-05-20T04:50:30.307Z,9.20
2019-05-20T04:52:58.976Z,8.67
2019-05-20T04:55:27.704Z,9.30
2019-05-20T04:57:56.361Z,9.37
2019-05-20T05:00:45.923Z,8.43
2019-05-20T05:03:14.611Z,8.90
2019-05-20T05:05:43.738Z,8.73
2019-05-20T05:08:12.499Z,8.67
2019-05-20T05:10:41.128Z,8.40
2019-05-20T05:13:09.838Z,8.00
2019-05-20T05:15:38.508Z,8.40
2019-05-20T05:18:07.526Z,8.23
2019-05-20T05:20:36.623Z,7.40
2019-05-20T05:23:05.288Z,8.53
2019-05-20T05:25:35.655Z,7.70
2019-05-20T05:28:05.187Z,7.53
2019-05-20T05:30:35.538Z,8.00
2019-05-20T05:33:04.319Z,7.10
2019-05-20T05:35:33.113Z,7.23
2019-05-20T05:38:02.290Z,7.97
2019-05-20T05:40:32.513Z,7.30
2019-05-20T05:43:01.105Z,7.63
2019-05-20T05:45:32.428Z,7.23
2019-05-20T05:48:02.038Z,7.57
2019-05-20T05:50:31.117Z,7.50
2019-05-20T05:52:59.838Z,7.13
2019-05-20T05:55:28.501Z,6.80
2019-05-20T05:57:57.324Z,6.60
2019-05-20T06:00:27.050Z,6.73
2019-05-20T06:02:55.843Z,6.07
2019-05-20T06:05:24.615Z,6.03
2019-05-20T06:07:53.353Z,5.40
2019-05-20T06:10:22.123Z,5.47
2019-05-20T06:12:50.658Z,5.23
2019-05-20T06:15:20.088Z,5.00
2019-05-20T06:17:49.496Z,5.17
2019-05-20T06:20:18.672Z,5.33
2019-05-20T06:22:47.448Z,5.43
2019-05-20T06:25:16.855Z,5.20
2019-05-20T06:27:45.595Z,5.30
2019-05-20T06:30:15.426Z,4.90
2019-05-20T06:32:43.984Z,4.83
2019-05-20T06:35:14.059Z,5.40
2019-05-20T06:37:54.289Z,5.20
2019-05-20T06:40:22.956Z,5.30
2019-05-20T06:42:51.632Z,5.07
2019-05-20T06:45:20.330Z,5.97
2019-05-20T06:47:48.979Z,5.60
2019-05-20T06:50:18.068Z,5.93
2019-05-20T06:52:46.754Z,6.03
2019-05-20T06:55:16.234Z,5.23
2019-05-20T06:57:44.902Z,5.37
2019-05-20T07:00:14.475Z,5.97
2019-05-20T07:02:43.167Z,5.33
2019-05-20T07:05:12.219Z,5.40
2019-05-20T07:07:40.998Z,4.90
2019-05-20T07:10:10.391Z,4.73
2019-05-20T07:12:41.494Z,5.20
2019-05-20T07:15:10.295Z,4.80
2019-05-20T07:17:38.909Z,5.53
2019-05-20T07:20:08.406Z,5.27
2019-05-20T07:22:54.653Z,5.03
2019-05-20T07:25:08.268Z,4.63
2019-05-20T07:27:37.008Z,4.70
2019-05-20T07:30:07.304Z,5.37
2019-05-20T07:32:36.024Z,5.23
2019-05-20T07:35:07.499Z,5.67
2019-05-20T07:37:36.279Z,5.33
2019-05-20T07:40:06.518Z,5.10
2019-05-20T07:42:35.334Z,5.43
2019-05-20T07:45:06.003Z,5.33
2019-05-20T07:47:35.132Z,5.23
2019-05-20T07:50:06.596Z,5.87
2019-05-20T07:52:35.650Z,5.50
2019-05-20T07:55:06.383Z,5.20
2019-05-20T07:57:37.916Z,5.60
2019-05-20T08:00:08.911Z,5.37
2019-05-20T08:02:37.380Z,5.33
2019-05-20T08:05:08.535Z,5.87
2019-05-20T08:07:51.430Z,5.03
2019-05-20T08:10:08.788Z,5.00
2019-05-20T08:12:37.257Z,4.83
2019-05-20T08:15:10.834Z,4.40
2019-05-20T08:17:39.499Z,4.77
2019-05-20T08:20:08.794Z,4.67
2019-05-20T08:22:37.356Z,4.50
2019-05-20T08:25:07.887Z,4.57
2019-05-20T08:27:36.456Z,4.80
2019-05-20T08:30:07.329Z,4.97
2019-05-20T08:32:35.933Z,4.73
2019-05-20T08:35:06.663Z,4.73
2019-05-20T08:37:44.808Z,5.13
2019-05-20T08:40:06.278Z,4.73
2019-05-20T08:42:34.950Z,5.07
2019-05-20T08:45:04.729Z,4.67
2019-05-20T08:47:33.460Z,4.73
2019-05-20T08:50:04.321Z,4.50
2019-05-20T08:52:32.338Z,4.70
2019-05-20T08:55:00.878Z,4.43
2019-05-20T08:57:29.419Z,4.83
2019-05-20T08:59:57.990Z,4.77
2019-05-20T09:02:26.537Z,4.97
2019-05-20T09:04:55.075Z,4.93
2019-05-20T09:07:23.748Z,4.73
2019-05-20T09:09:52.299Z,4.80
2019-05-20T09:12:20.836Z,4.90
2019-05-20T09:14:49.439Z,4.90
2019-05-20T09:17:17.983Z,4.53
2019-05-20T09:19:47.188Z,5.13
2019-05-20T09:22:16.163Z,4.70
2019-05-20T09:24:44.816Z,5.20
2019-05-20T09:27:13.585Z,4.73
2019-05-20T09:29:42.150Z,5.17
2019-05-20T09:32:10.689Z,4.77
2019-05-20T09:34:39.488Z,4.90
2019-05-20T09:37:07.970Z,4.57
2019-05-20T09:39:36.515Z,4.20
2019-05-20T09:42:05.183Z,4.50
2019-05-20T09:44:33.703Z,3.97
2019-05-20T09:47:02.229Z,4.60
2019-05-20T09:49:30.899Z,4.63
2019-05-20T09:51:59.415Z,4.60
2019-05-20T09:54:27.875Z,5.30
2019-05-20T09:56:56.340Z,4.20
2019-05-20T09:59:24.833Z,3.57
2019-05-20T10:01:53.358Z,4.30
2019-05-20T10:04:21.829Z,4.47
2019-05-20T10:06:50.470Z,4.50
2019-05-20T10:09:19.071Z,4.27
2019-05-20T10:11:47.544Z,4.40
2019-05-20T10:14:16.184Z,4.90
2019-05-20T10:16:45.257Z,4.37
2019-05-20T10:19:13.723Z,4.73
2019-05-20T10:21:42.222Z,4.50
2019-05-20T10:24:10.677Z,4.27
2019-05-20T10:26:39.360Z,5.20
2019-05-20T10:29:08.002Z,5.00
2019-05-20T10:31:36.460Z,4.23
2019-05-20T10:34:05.238Z,5.43
2019-05-20T10:36:33.910Z,5.40
2019-05-20T10:39:07.045Z,5.67
2019-05-20T10:41:33.616Z,5.40
2019-05-20T10:44:02.199Z,5.47
2019-05-20T10:46:30.932Z,6.53
2019-05-20T10:48:59.886Z,5.97
2019-05-20T10:51:28.383Z,5.93
2019-05-20T10:53:56.843Z,6.30
2019-05-20T10:56:25.368Z,6.30
2019-05-20T10:58:53.857Z,6.40
2019-05-20T11:01:22.321Z,7.00
2019-05-20T11:03:50.782Z,6.53
2019-05-20T11:06:19.426Z,6.33
2019-05-20T11:08:47.965Z,6.80
2019-05-20T11:11:16.496Z,7.00
2019-05-20T11:13:45.003Z,7.17
2019-05-20T11:16:13.711Z,7.03
2019-05-20T11:18:42.181Z,6.23
2019-05-20T11:21:10.767Z,7.00
2019-05-20T11:23:39.234Z,6.73
2019-05-20T11:26:07.768Z,6.90
2019-05-20T11:28:36.276Z,7.57
2019-05-20T11:31:04.903Z,6.87
2019-05-20T11:33:33.440Z,7.40
2019-05-20T11:36:01.968Z,7.07
2019-05-20T11:38:30.695Z,8.97
2019-05-20T11:40:59.168Z,8.87
2019-05-20T11:43:28.106Z,9.57
2019-05-20T11:45:57.730Z,8.87
2019-05-20T11:48:27.775Z,8.90
2019-05-20T11:50:56.281Z,9.73
2019-05-20T11:53:24.737Z,9.17
2019-05-20T11:55:53.196Z,9.67
2019-05-20T11:58:21.711Z,9.20
2019-05-20T12:00:50.237Z,9.60
2019-05-20T12:03:18.700Z,9.90
2019-05-20T12:05:47.277Z,9.90
2019-05-20T12:08:15.824Z,9.60
2019-05-20T12:10:44.832Z,9.80
2019-05-20T12:13:13.396Z,9.57
2019-05-20T12:15:42.688Z,9.47
2019-05-20T12:18:11.159Z,9.37
2019-05-20T12:20:39.650Z,9.40
2019-05-20T12:23:08.114Z,9.83
2019-05-20T12:25:36.650Z,9.93
2019-05-20T12:28:05.647Z,10.00
2019-05-20T12:30:34.238Z,11.33
2019-05-20T12:33:17.714Z,10.30
2019-05-20T12:35:33.236Z,10.17
2019-05-20T12:38:01.702Z,10.67
2019-05-20T12:40:30.325Z,10.90
2019-05-20T12:42:59.034Z,12.13
2019-05-20T12:45:27.507Z,11.60
2019-05-20T12:47:55.977Z,11.90
2019-05-20T12:50:24.627Z,11.30
2019-05-20T12:52:53.164Z,11.90
2019-05-20T12:55:21.707Z,11.40
2019-05-20T12:57:50.301Z,12.43
2019-05-20T13:00:19.776Z,12.77
2019-05-20T13:02:48.632Z,13.47
2019-05-20T13:05:17.389Z,12.20
2019-05-20T13:07:46.073Z,13.03
2019-05-20T13:10:28.957Z,12.37
2019-05-20T13:12:45.609Z,12.70
2019-05-20T13:15:16.163Z,12.70
2019-05-20T13:17:45.535Z,12.77
2019-05-20T13:20:15.036Z,12.73
2019-05-20T13:22:43.604Z,12.03
2019-05-20T13:25:13.263Z,12.90
2019-05-20T13:27:41.847Z,13.10
2019-05-20T13:30:11.962Z,13.23
2019-05-20T13:32:40.875Z,12.17
2019-05-20T13:35:10.495Z,13.33
2019-05-20T13:37:39.145Z,12.80
2019-05-20T13:40:09.012Z,11.60
2019-05-20T13:42:37.506Z,11.50
2019-05-20T13:45:07.622Z,10.87
2019-05-20T13:47:36.159Z,10.27
2019-05-20T13:50:09.085Z,10.80
2019-05-20T13:52:37.556Z,9.43
2019-05-20T13:55:06.366Z,10.27
2019-05-20T13:57:34.930Z,9.33
2019-05-20T14:00:05.899Z,9.47
2019-05-20T14:02:34.547Z,8.97
2019-05-20T14:05:03.340Z,9.00
2019-05-20T14:07:32.491Z,8.53
2019-05-20T14:10:01.035Z,8.03
2019-05-20T14:12:29.630Z,8.60
2019-05-20T14:14:58.096Z,7.97
2019-05-20T14:17:26.765Z,7.57
2019-05-20T14:19:55.707Z,7.33
2019-05-20T14:22:24.240Z,7.03
2019-05-20T14:24:52.707Z,7.23
2019-05-20T14:27:21.283Z,6.73
2019-05-20T14:29:49.866Z,6.57
2019-05-20T14:32:18.498Z,6.60
2019-05-20T14:34:47.073Z,6.43
2019-05-20T14:37:15.592Z,6.07
2019-05-20T14:39:44.330Z,6.07
2019-05-20T14:42:12.898Z,6.40
2019-05-20T14:44:41.538Z,6.37
2019-05-20T14:47:10.075Z,6.97
2019-05-20T14:49:38.830Z,6.73
2019-05-20T14:52:07.416Z,6.43
2019-05-20T14:54:35.879Z,6.60
2019-05-20T14:57:04.527Z,6.83
2019-05-20T14:59:33.780Z,6.90
2019-05-20T15:02:02.307Z,6.70
2019-05-20T15:04:31.484Z,6.03
2019-05-20T15:07:00.027Z,5.60
2019-05-20T15:09:28.559Z,5.23
2019-05-20T15:11:57.068Z,5.13
2019-05-20T15:14:25.527Z,5.17
2019-05-20T15:16:54.067Z,5.27
2019-05-20T15:19:22.675Z,5.00
2019-05-20T15:21:51.292Z,4.87
2019-05-20T15:24:20.084Z,5.13
2019-05-20T15:26:48.985Z,4.60
2019-05-20T15:29:28.199Z,4.40
2019-05-20T15:31:49.269Z,4.73
2019-05-20T15:34:17.847Z,4.23
2019-05-20T15:36:46.496Z,4.27
2019-05-20T15:39:15.255Z,4.43
2019-05-20T15:41:45.480Z,4.40
2019-05-20T15:44:13.984Z,4.80
2019-05-20T15:46:42.451Z,4.50
2019-05-20T15:49:11.019Z,4.23
2019-05-20T15:51:39.564Z,4.30
2019-05-20T15:54:08.309Z,4.33
2019-05-20T15:56:36.808Z,4.40
2019-05-20T15:59:05.702Z,4.63
2019-05-20T16:01:34.797Z,4.97
2019-05-20T16:04:03.381Z,5.00
2019-05-20T16:06:31.853Z,5.00
2019-05-20T16:09:00.377Z,4.53
2019-05-20T16:11:29.025Z,5.10
2019-05-20T16:13:57.720Z,5.20
2019-05-20T16:16:26.169Z,4.80
2019-05-20T16:18:54.759Z,5.00
2019-05-20T16:21:23.436Z,4.70
2019-05-20T16:23:52.108Z,5.53
2019-05-20T16:26:20.684Z,5.03
2019-05-20T16:28:49.286Z,5.43
2019-05-20T16:31:17.829Z,5.70
2019-05-20T16:33:46.405Z,5.83
2019-05-20T16:36:14.869Z,6.07
2019-05-20T16:38:43.332Z,6.23
2019-05-20T16:41:11.967Z,6.03
2019-05-20T16:43:40.489Z,7.10
2019-05-20T16:46:08.956Z,7.20
2019-05-20T16:48:37.526Z,7.20
2019-05-20T16:51:06.010Z,6.93
2019-05-20T16:53:34.472Z,7.10
2019-05-20T16:56:03.058Z,7.50
2019-05-20T16:58:31.510Z,7.27
2019-05-20T17:01:00.039Z,8.13
2019-05-20T17:03:28.612Z,9.17
2019-05-20T17:05:57.069Z,9.00
2019-05-20T17:08:25.593Z,8.13
2019-05-20T17:10:54.111Z,9.33
2019-05-20T17:13:22.581Z,9.53
2019-05-20T17:15:51.113Z,9.80
2019-05-20T17:18:19.608Z,10.50
2019-05-20T17:20:48.086Z,10.27
2019-05-20T17:23:16.617Z,11.73
2019-05-20T17:25:45.132Z,11.03
2019-05-20T17:28:13.668Z,11.30
2019-05-20T17:30:45.248Z,11.73
2019-05-20T17:33:12.504Z,11.90
2019-05-20T17:35:41.037Z,13.07
2019-05-20T17:38:09.728Z,12.00
2019-05-20T17:40:38.432Z,12.93
2019-05-20T17:43:07.042Z,13.77
2019-05-20T17:45:35.923Z,14.03
2019-05-20T17:48:05.387Z,15.37
2019-05-20T17:50:34.195Z,15.50
2019-05-20T17:53:02.838Z,16.00
2019-05-20T17:55:31.704Z,17.07
2019-05-20T17:58:00.235Z,16.43
2019-05-20T18:00:29.068Z,16.37
2019-05-20T18:02:59.260Z,17.40
2019-05-20T18:05:28.161Z,18.03
2019-05-20T18:07:56.626Z,18.57
2019-05-20T18:10:25.574Z,19.83
2019-05-20T18:12:54.486Z,22.07
2019-05-20T18:15:24.939Z,21.50
2019-05-20T18:17:53.513Z,23.47
2019-05-20T18:20:22.228Z,24.37
2019-05-20T18:22:50.819Z,23.97
2019-05-20T18:25:19.611Z,24.33
2019-05-20T18:27:48.166Z,24.23
2019-05-20T18:30:17.020Z,24.27
2019-05-20T18:32:45.613Z,23.67
2019-05-20T18:35:14.153Z,24.27
2019-05-20T18:37:42.861Z,23.83
2019-05-20T18:40:14.492Z,22.03
2019-05-20T18:42:42.691Z,23.63
2019-05-20T18:45:12.216Z,21.13
2019-05-20T18:47:40.980Z,22.53
2019-05-20T18:50:10.807Z,20.83
2019-05-20T18:52:39.494Z,24.20
2019-05-20T18:55:08.657Z,25.00
2019-05-20T18:57:37.337Z,22.97
2019-05-20T19:00:08.386Z,28.33
2019-05-20T19:02:37.211Z,24.03
2019-05-20T19:05:10.290Z,24.23
2019-05-20T19:07:38.962Z,23.00
2019-05-20T19:10:07.934Z,23.17
2019-05-20T19:12:36.536Z,22.27
2019-05-20T19:15:07.089Z,23.50
2019-05-20T19:17:36.101Z,22.93
2019-05-20T19:20:06.109Z,23.50
2019-05-20T19:22:34.844Z,23.40
2019-05-20T19:25:06.198Z,22.77
2019-05-20T19:27:34.741Z,23.87
2019-05-20T19:30:03.721Z,23.97
2019-05-20T19:32:32.521Z,24.47
2019-05-20T19:35:01.229Z,24.83
2019-05-20T19:37:29.906Z,25.63
2019-05-20T19:39:58.636Z,24.27
2019-05-20T19:42:27.319Z,25.00
2019-05-20T19:44:55.985Z,26.43
2019-05-20T19:47:24.676Z,26.13
2019-05-20T19:49:55.376Z,27.73
2019-05-20T19:52:24.046Z,28.00
2019-05-20T19:54:52.827Z,29.27
2019-05-20T19:57:21.500Z,28.13
2019-05-20T19:59:50.277Z,29.70
2019-05-20T20:02:19.215Z,31.10
2019-05-20T20:04:47.772Z,30.73
2019-05-20T20:07:16.524Z,31.97
2019-05-20T20:09:45.547Z,31.70
2019-05-20T20:12:14.379Z,33.33
2019-05-20T20:14:42.964Z,33.37
2019-05-20T20:17:11.797Z,33.30
2019-05-20T20:19:40.485Z,34.73
2019-05-20T20:22:10.207Z,35.50
2019-05-20T20:24:38.972Z,35.37
2019-05-20T20:27:07.574Z,38.40
2019-05-20T20:29:36.264Z,36.23
2019-05-20T20:32:05.935Z,36.80
2019-05-20T20:34:34.517Z,37.97
2019-05-20T20:37:03.188Z,36.43
2019-05-20T20:39:34.394Z,36.90
2019-05-20T20:42:02.543Z,35.27
2019-05-20T20:44:31.376Z,35.30
2019-05-20T20:46:59.986Z,38.00
2019-05-20T20:49:28.631Z,35.83
2019-05-20T20:51:57.370Z,33.10
2019-05-20T20:54:26.028Z,33.37
2019-05-20T20:56:54.684Z,33.27
2019-05-20T20:59:23.377Z,34.17
2019-05-20T21:01:55.347Z,32.83
2019-05-20T21:04:22.378Z,29.00
2019-05-20T21:06:51.075Z,29.60
2019-05-20T21:12:01.689Z,28.90
2019-05-20T21:14:30.231Z,28.87
2019-05-20T21:16:58.773Z,27.90
2019-05-20T21:19:27.370Z,27.47
2019-05-20T21:21:55.855Z,27.87
2019-05-20T21:24:24.339Z,27.87
2019-05-20T21:26:52.970Z,26.67
2019-05-20T21:29:21.442Z,24.43
2019-05-20T21:31:50.730Z,25.03
2019-05-20T21:34:19.250Z,23.67
2019-05-20T21:36:48.403Z,22.17
2019-05-20T21:39:17.037Z,22.23
2019-05-20T21:41:45.581Z,22.03
2019-05-20T21:44:14.553Z,21.30
2019-05-20T21:46:43.024Z,20.97
2019-05-20T21:49:11.542Z,18.90
2019-05-20T21:51:40.554Z,19.13
2019-05-20T21:54:09.023Z,18.53
2019-05-20T21:56:37.535Z,18.23
2019-05-20T21:59:06.138Z,17.40
2019-05-20T22:01:34.612Z,17.23
2019-05-20T22:04:03.599Z,17.10
2019-05-20T22:06:32.089Z,17.80
2019-05-20T22:09:00.760Z,17.10
2019-05-20T22:11:29.353Z,17.67
2019-05-20T22:13:57.806Z,16.03
2019-05-20T22:16:29.700Z,17.37
2019-05-20T22:18:58.717Z,18.13
2019-05-20T22:21:37.694Z,18.40
2019-05-20T22:24:08.228Z,18.97
2019-05-20T22:26:36.951Z,19.00
2019-05-20T22:29:06.113Z,19.40
2019-05-20T22:31:34.793Z,19.33
2019-05-20T22:34:03.259Z,20.70
2019-05-20T22:36:31.754Z,21.43
2019-05-20T22:39:00.400Z,21.60
2019-05-20T22:41:29.329Z,21.83
2019-05-20T22:43:57.803Z,21.10
2019-05-20T22:46:26.311Z,21.07
2019-05-20T22:48:54.796Z,22.67
2019-05-20T22:51:23.862Z,23.03
2019-05-20T22:53:52.437Z,23.63
2019-05-20T22:56:20.923Z,25.00
2019-05-20T22:58:49.534Z,23.77
2019-05-20T23:01:18.114Z,24.07
2019-05-20T23:03:55.949Z,23.50
2019-05-20T23:06:16.846Z,23.43
2019-05-20T23:08:45.413Z,23.97
2019-05-20T23:11:13.962Z,23.93
2019-05-20T23:13:42.504Z,21.60
2019-05-20T23:16:11.625Z,19.90
2019-05-20T23:18:40.220Z,19.53
2019-05-20T23:21:08.770Z,19.10
2019-05-20T23:23:37.298Z,17.80
2019-05-20T23:26:06.699Z,17.87
2019-05-20T23:28:35.166Z,16.90
2019-05-20T23:31:04.056Z,16.60
2019-05-20T23:33:32.607Z,16.87
2019-05-20T23:36:01.331Z,17.20
2019-05-20T23:38:29.850Z,16.20
2019-05-20T23:40:58.326Z,16.27
2019-05-20T23:43:26.880Z,15.97
2019-05-20T23:45:55.385Z,16.20
2019-05-20T23:48:23.933Z,15.67
2019-05-20T23:50:52.394Z,15.97
2019-05-20T23:53:20.921Z,15.97
2019-05-20T23:55:49.427Z,16.33
2019-05-20T23:58:18.411Z,16.50
